sensor_id;sensor_type;location;lat;lon;timestamp;P1;durP1;ratioP1;P2;durP2;ratioP2
46751;SDS011;32497;48.936;9.270;2024-02-14T00:02:37;1.00;;;0.50;;
46751;SDS011;32497;48.936;9.270;2024-02-14T00:07:39;0.03;;;0.03;;
46751;SDS011;32497;48.936;9.270;2024-02-14T00:12:40;0.47;;;0.47;;
46751;SDS011;32497;48.936;9.270;2024-02-14T00:17:41;1.23;;;0.57;;
46751;SDS011;32497;48.936;9.270;2024-02-14T00:22:44;0.53;;;0.43;;
46751;SDS011;32497;48.936;9.270;2024-02-14T00:27:45;1.03;;;0.40;;
46751;SDS011;32497;48.936;9.270;2024-02-14T00:32:46;5.53;;;0.93;;
46751;SDS011;32497;48.936;9.270;2024-02-14T00:37:49;0.53;;;0.27;;
46751;SDS011;32497;48.936;9.270;2024-02-14T00:42:50;0.13;;;0.13;;
46751;SDS011;32497;48.936;9.270;2024-02-14T00:47:51;0.50;;;0.43;;
46751;SDS011;32497;48.936;9.270;2024-02-14T00:52:53;1.50;;;0.87;;
46751;SDS011;32497;48.936;9.270;2024-02-14T00:57:54;1.00;;;0.70;;
46751;SDS011;32497;48.936;9.270;2024-02-14T01:02:55;0.90;;;0.47;;
46751;SDS011;32497;48.936;9.270;2024-02-14T01:07:58;2.13;;;0.63;;
46751;SDS011;32497;48.936;9.270;2024-02-14T01:12:59;1.97;;;0.90;;
46751;SDS011;32497;48.936;9.270;2024-02-14T01:18:00;2.20;;;1.07;;
46751;SDS011;32497;48.936;9.270;2024-02-14T01:23:03;1.83;;;0.73;;
46751;SDS011;32497;48.936;9.270;2024-02-14T01:28:04;1.13;;;0.40;;
46751;SDS011;32497;48.936;9.270;2024-02-14T01:33:05;0.70;;;0.70;;
46751;SDS011;32497;48.936;9.270;2024-02-14T01:38:08;4.20;;;1.63;;
46751;SDS011;32497;48.936;9.270;2024-02-14T01:43:09;3.23;;;0.93;;
46751;SDS011;32497;48.936;9.270;2024-02-14T01:48:10;1.47;;;0.50;;
46751;SDS011;32497;48.936;9.270;2024-02-14T01:53:13;1.53;;;1.00;;
46751;SDS011;32497;48.936;9.270;2024-02-14T01:58:14;0.70;;;0.70;;
46751;SDS011;32497;48.936;9.270;2024-02-14T02:03:15;1.97;;;0.90;;
46751;SDS011;32497;48.936;9.270;2024-02-14T02:08:18;1.10;;;0.50;;
46751;SDS011;32497;48.936;9.270;2024-02-14T02:13:20;4.37;;;1.47;;
46751;SDS011;32497;48.936;9.270;2024-02-14T02:18:21;3.00;;;0.73;;
46751;SDS011;32497;48.936;9.270;2024-02-14T02:23:23;2.50;;;0.67;;
46751;SDS011;32497;48.936;9.270;2024-02-14T02:28:24;5.90;;;1.20;;
46751;SDS011;32497;48.936;9.270;2024-02-14T02:33:25;2.10;;;0.73;;
46751;SDS011;32497;48.936;9.270;2024-02-14T02:38:28;3.13;;;0.77;;
46751;SDS011;32497;48.936;9.270;2024-02-14T02:43:29;1.13;;;0.53;;
46751;SDS011;32497;48.936;9.270;2024-02-14T02:48:30;0.73;;;0.23;;
46751;SDS011;32497;48.936;9.270;2024-02-14T02:53:33;1.27;;;0.43;;
46751;SDS011;32497;48.936;9.270;2024-02-14T02:58:34;1.63;;;0.53;;
46751;SDS011;32497;48.936;9.270;2024-02-14T03:03:35;1.43;;;0.30;;
46751;SDS011;32497;48.936;9.270;2024-02-14T03:08:37;1.80;;;0.30;;
46751;SDS011;32497;48.936;9.270;2024-02-14T03:13:38;1.27;;;0.57;;
46751;SDS011;32497;48.936;9.270;2024-02-14T03:18:39;0.57;;;0.33;;
46751;SDS011;32497;48.936;9.270;2024-02-14T03:23:42;1.67;;;0.73;;
46751;SDS011;32497;48.936;9.270;2024-02-14T03:28:43;0.50;;;0.40;;
46751;SDS011;32497;48.936;9.270;2024-02-14T03:33:44;0.63;;;0.30;;
46751;SDS011;32497;48.936;9.270;2024-02-14T03:38:47;0.40;;;0.20;;
46751;SDS011;32497;48.936;9.270;2024-02-14T03:43:48;1.67;;;0.50;;
46751;SDS011;32497;48.936;9.270;2024-02-14T03:48:49;0.93;;;0.43;;
46751;SDS011;32497;48.936;9.270;2024-02-14T03:53:51;3.67;;;1.00;;
46751;SDS011;32497;48.936;9.270;2024-02-14T03:58:52;0.90;;;0.47;;
46751;SDS011;32497;48.936;9.270;2024-02-14T04:03:54;0.77;;;0.43;;
46751;SDS011;32497;48.936;9.270;2024-02-14T04:08:56;1.53;;;0.50;;
46751;SDS011;32497;48.936;9.270;2024-02-14T04:13:57;3.10;;;0.50;;
46751;SDS011;32497;48.936;9.270;2024-02-14T04:18:58;0.40;;;0.40;;
46751;SDS011;32497;48.936;9.270;2024-02-14T04:24:01;1.13;;;0.70;;
46751;SDS011;32497;48.936;9.270;2024-02-14T04:29:02;0.40;;;0.37;;
46751;SDS011;32497;48.936;9.270;2024-02-14T04:34:03;0.80;;;0.60;;
46751;SDS011;32497;48.936;9.270;2024-02-14T04:39:06;0.50;;;0.30;;
46751;SDS011;32497;48.936;9.270;2024-02-14T04:44:07;1.00;;;0.50;;
46751;SDS011;32497;48.936;9.270;2024-02-14T04:49:08;0.37;;;0.37;;
46751;SDS011;32497;48.936;9.270;2024-02-14T04:54:10;1.47;;;0.47;;
46751;SDS011;32497;48.936;9.270;2024-02-14T04:59:11;1.47;;;0.50;;
46751;SDS011;32497;48.936;9.270;2024-02-14T05:04:13;1.23;;;0.47;;
46751;SDS011;32497;48.936;9.270;2024-02-14T05:09:15;0.60;;;0.40;;
46751;SDS011;32497;48.936;9.270;2024-02-14T05:14:16;2.20;;;1.07;;
46751;SDS011;32497;48.936;9.270;2024-02-14T05:19:18;0.73;;;0.40;;
46751;SDS011;32497;48.936;9.270;2024-02-14T05:24:20;3.07;;;0.70;;
46751;SDS011;32497;48.936;9.270;2024-02-14T05:29:21;2.30;;;0.70;;
46751;SDS011;32497;48.936;9.270;2024-02-14T05:34:23;0.90;;;0.47;;
46751;SDS011;32497;48.936;9.270;2024-02-14T05:39:25;0.63;;;0.50;;
46751;SDS011;32497;48.936;9.270;2024-02-14T05:44:26;1.77;;;0.60;;
46751;SDS011;32497;48.936;9.270;2024-02-14T05:49:27;0.70;;;0.43;;
46751;SDS011;32497;48.936;9.270;2024-02-14T05:54:30;1.03;;;0.47;;
46751;SDS011;32497;48.936;9.270;2024-02-14T05:59:31;3.03;;;0.50;;
46751;SDS011;32497;48.936;9.270;2024-02-14T06:04:32;3.07;;;0.50;;
46751;SDS011;32497;48.936;9.270;2024-02-14T06:09:34;0.53;;;0.40;;
46751;SDS011;32497;48.936;9.270;2024-02-14T06:14:36;0.83;;;0.50;;
46751;SDS011;32497;48.936;9.270;2024-02-14T06:19:37;4.73;;;0.50;;
46751;SDS011;32497;48.936;9.270;2024-02-14T06:24:39;0.23;;;0.23;;
46751;SDS011;32497;48.936;9.270;2024-02-14T06:29:41;2.00;;;0.37;;
46751;SDS011;32497;48.936;9.270;2024-02-14T06:34:43;0.23;;;0.13;;
46751;SDS011;32497;48.936;9.270;2024-02-14T06:39:45;2.10;;;0.63;;
46751;SDS011;32497;48.936;9.270;2024-02-14T06:44:46;1.70;;;0.30;;
46751;SDS011;32497;48.936;9.270;2024-02-14T06:49:47;0.40;;;0.37;;
46751;SDS011;32497;48.936;9.270;2024-02-14T06:54:50;2.20;;;0.60;;
46751;SDS011;32497;48.936;9.270;2024-02-14T06:59:54;0.70;;;0.30;;
46751;SDS011;32497;48.936;9.270;2024-02-14T07:04:55;1.00;;;0.57;;
46751;SDS011;32497;48.936;9.270;2024-02-14T07:09:58;0.30;;;0.30;;
46751;SDS011;32497;48.936;9.270;2024-02-14T07:14:59;0.10;;;0.10;;
46751;SDS011;32497;48.936;9.270;2024-02-14T07:20:00;0.87;;;0.50;;
46751;SDS011;32497;48.936;9.270;2024-02-14T07:25:03;0.43;;;0.40;;
46751;SDS011;32497;48.936;9.270;2024-02-14T07:30:05;0.50;;;0.30;;
46751;SDS011;32497;48.936;9.270;2024-02-14T07:35:07;0.33;;;0.33;;
46751;SDS011;32497;48.936;9.270;2024-02-14T07:40:10;0.97;;;0.23;;
46751;SDS011;32497;48.936;9.270;2024-02-14T07:45:12;0.43;;;0.20;;
46751;SDS011;32497;48.936;9.270;2024-02-14T07:50:13;0.40;;;0.30;;
46751;SDS011;32497;48.936;9.270;2024-02-14T07:55:15;0.47;;;0.30;;
46751;SDS011;32497;48.936;9.270;2024-02-14T08:00:19;1.13;;;0.23;;
46751;SDS011;32497;48.936;9.270;2024-02-14T08:05:26;1.10;;;0.40;;
46751;SDS011;32497;48.936;9.270;2024-02-14T08:10:28;1.93;;;0.77;;
46751;SDS011;32497;48.936;9.270;2024-02-14T08:15:29;1.10;;;0.40;;
46751;SDS011;32497;48.936;9.270;2024-02-14T08:20:30;1.43;;;0.40;;
46751;SDS011;32497;48.936;9.270;2024-02-14T08:25:33;1.13;;;0.40;;
46751;SDS011;32497;48.936;9.270;2024-02-14T08:30:34;1.70;;;0.77;;
46751;SDS011;32497;48.936;9.270;2024-02-14T08:35:35;0.73;;;0.33;;
46751;SDS011;32497;48.936;9.270;2024-02-14T08:40:38;0.43;;;0.40;;
46751;SDS011;32497;48.936;9.270;2024-02-14T08:45:39;2.77;;;0.57;;
46751;SDS011;32497;48.936;9.270;2024-02-14T08:50:40;2.07;;;0.57;;
46751;SDS011;32497;48.936;9.270;2024-02-14T08:55:42;1.33;;;0.67;;
46751;SDS011;32497;48.936;9.270;2024-02-14T09:00:43;3.17;;;0.60;;
46751;SDS011;32497;48.936;9.270;2024-02-14T09:05:44;1.00;;;0.90;;
46751;SDS011;32497;48.936;9.270;2024-02-14T09:10:47;1.13;;;0.53;;
46751;SDS011;32497;48.936;9.270;2024-02-14T09:15:48;1.57;;;0.70;;
46751;SDS011;32497;48.936;9.270;2024-02-14T09:20:49;2.57;;;1.10;;
46751;SDS011;32497;48.936;9.270;2024-02-14T09:25:52;1.10;;;0.70;;
46751;SDS011;32497;48.936;9.270;2024-02-14T09:30:53;1.87;;;0.87;;
46751;SDS011;32497;48.936;9.270;2024-02-14T09:35:57;2.67;;;1.17;;
46751;SDS011;32497;48.936;9.270;2024-02-14T09:41:01;4.30;;;1.27;;
46751;SDS011;32497;48.936;9.270;2024-02-14T09:46:12;5.03;;;0.87;;
46751;SDS011;32497;48.936;9.270;2024-02-14T09:51:14;2.57;;;0.93;;
46751;SDS011;32497;48.936;9.270;2024-02-14T09:56:17;0.87;;;0.80;;
46751;SDS011;32497;48.936;9.270;2024-02-14T10:01:19;1.83;;;0.70;;
46751;SDS011;32497;48.936;9.270;2024-02-14T10:06:20;0.57;;;0.50;;
46751;SDS011;32497;48.936;9.270;2024-02-14T10:11:23;0.83;;;0.43;;
46751;SDS011;32497;48.936;9.270;2024-02-14T10:16:25;0.90;;;0.43;;
46751;SDS011;32497;48.936;9.270;2024-02-14T10:21:27;0.80;;;0.50;;
46751;SDS011;32497;48.936;9.270;2024-02-14T10:26:30;1.10;;;0.60;;
46751;SDS011;32497;48.936;9.270;2024-02-14T10:31:31;1.90;;;0.80;;
46751;SDS011;32497;48.936;9.270;2024-02-14T10:36:32;0.60;;;0.50;;
46751;SDS011;32497;48.936;9.270;2024-02-14T10:41:37;2.00;;;0.77;;
46751;SDS011;32497;48.936;9.270;2024-02-14T10:46:38;1.23;;;0.43;;
46751;SDS011;32497;48.936;9.270;2024-02-14T10:51:41;2.93;;;0.70;;
46751;SDS011;32497;48.936;9.270;2024-02-14T10:56:48;0.83;;;0.40;;
46751;SDS011;32497;48.936;9.270;2024-02-14T11:01:50;4.53;;;0.80;;
46751;SDS011;32497;48.936;9.270;2024-02-14T11:06:52;0.70;;;0.40;;
46751;SDS011;32497;48.936;9.270;2024-02-14T11:11:59;0.13;;;0.13;;
46751;SDS011;32497;48.936;9.270;2024-02-14T11:17:01;0.27;;;0.20;;
46751;SDS011;32497;48.936;9.270;2024-02-14T11:22:12;1.17;;;0.30;;
46751;SDS011;32497;48.936;9.270;2024-02-14T11:27:17;1.03;;;0.10;;
46751;SDS011;32497;48.936;9.270;2024-02-14T11:32:18;1.10;;;0.53;;
46751;SDS011;32497;48.936;9.270;2024-02-14T11:37:26;0.90;;;0.30;;
46751;SDS011;32497;48.936;9.270;2024-02-14T11:42:29;0.23;;;0.20;;
46751;SDS011;32497;48.936;9.270;2024-02-14T11:47:31;0.67;;;0.23;;
46751;SDS011;32497;48.936;9.270;2024-02-14T11:52:32;0.77;;;0.27;;
46751;SDS011;32497;48.936;9.270;2024-02-14T11:57:36;1.80;;;0.40;;
46751;SDS011;32497;48.936;9.270;2024-02-14T12:02:37;0.53;;;0.30;;
46751;SDS011;32497;48.936;9.270;2024-02-14T12:07:38;0.30;;;0.20;;
46751;SDS011;32497;48.936;9.270;2024-02-14T12:12:44;1.33;;;0.40;;
46751;SDS011;32497;48.936;9.270;2024-02-14T12:17:46;0.30;;;0.20;;
46751;SDS011;32497;48.936;9.270;2024-02-14T12:22:49;0.67;;;0.20;;
46751;SDS011;32497;48.936;9.270;2024-02-14T12:27:52;0.83;;;0.40;;
46751;SDS011;32497;48.936;9.270;2024-02-14T12:32:59;1.20;;;0.50;;
46751;SDS011;32497;48.936;9.270;2024-02-14T12:38:00;0.57;;;0.35;;
46751;SDS011;32497;48.936;9.270;2024-02-14T12:43:03;0.60;;;0.30;;
46751;SDS011;32497;48.936;9.270;2024-02-14T12:48:04;0.35;;;0.15;;
46751;SDS011;32497;48.936;9.270;2024-02-14T12:53:07;0.70;;;0.50;;
46751;SDS011;32497;48.936;9.270;2024-02-14T12:58:09;1.15;;;1.00;;
46751;SDS011;32497;48.936;9.270;2024-02-14T13:03:10;0.40;;;0.28;;
46751;SDS011;32497;48.936;9.270;2024-02-14T13:08:11;0.55;;;0.30;;
46751;SDS011;32497;48.936;9.270;2024-02-14T13:13:14;1.65;;;0.47;;
46751;SDS011;32497;48.936;9.270;2024-02-14T13:18:15;0.93;;;0.30;;
46751;SDS011;32497;48.936;9.270;2024-02-14T13:23:16;0.95;;;0.43;;
46751;SDS011;32497;48.936;9.270;2024-02-14T13:28:19;1.10;;;0.45;;
46751;SDS011;32497;48.936;9.270;2024-02-14T13:33:20;0.40;;;0.30;;
46751;SDS011;32497;48.936;9.270;2024-02-14T13:38:21;0.40;;;0.40;;
46751;SDS011;32497;48.936;9.270;2024-02-14T13:43:24;1.88;;;0.40;;
46751;SDS011;32497;48.936;9.270;2024-02-14T13:48:25;1.67;;;0.60;;
46751;SDS011;32497;48.936;9.270;2024-02-14T13:53:26;1.05;;;0.82;;
46751;SDS011;32497;48.936;9.270;2024-02-14T13:58:28;1.10;;;0.45;;
46751;SDS011;32497;48.936;9.270;2024-02-14T14:03:29;1.20;;;0.60;;
46751;SDS011;32497;48.936;9.270;2024-02-14T14:08:31;0.93;;;0.57;;
46751;SDS011;32497;48.936;9.270;2024-02-14T14:13:33;1.20;;;0.40;;
46751;SDS011;32497;48.936;9.270;2024-02-14T14:18:34;0.65;;;0.50;;
46751;SDS011;32497;48.936;9.270;2024-02-14T14:23:35;0.50;;;0.50;;
46751;SDS011;32497;48.936;9.270;2024-02-14T14:28:38;0.45;;;0.40;;
46751;SDS011;32497;48.936;9.270;2024-02-14T14:33:39;1.40;;;0.50;;
46751;SDS011;32497;48.936;9.270;2024-02-14T14:38:40;0.52;;;0.30;;
46751;SDS011;32497;48.936;9.270;2024-02-14T14:43:42;0.50;;;0.30;;
46751;SDS011;32497;48.936;9.270;2024-02-14T14:48:43;1.58;;;0.50;;
46751;SDS011;32497;48.936;9.270;2024-02-14T14:53:45;0.57;;;0.40;;
46751;SDS011;32497;48.936;9.270;2024-02-14T14:58:47;0.80;;;0.50;;
46751;SDS011;32497;48.936;9.270;2024-02-14T15:03:48;0.60;;;0.50;;
46751;SDS011;32497;48.936;9.270;2024-02-14T15:08:49;0.70;;;0.43;;
46751;SDS011;32497;48.936;9.270;2024-02-14T15:13:52;0.52;;;0.40;;
46751;SDS011;32497;48.936;9.270;2024-02-14T15:18:53;0.55;;;0.40;;
46751;SDS011;32497;48.936;9.270;2024-02-14T15:23:54;1.55;;;0.43;;
46751;SDS011;32497;48.936;9.270;2024-02-14T15:28:56;1.05;;;0.30;;
46751;SDS011;32497;48.936;9.270;2024-02-14T15:33:57;0.82;;;0.40;;
46751;SDS011;32497;48.936;9.270;2024-02-14T15:38:59;1.45;;;0.50;;
46751;SDS011;32497;48.936;9.270;2024-02-14T15:44:01;0.25;;;0.10;;
46751;SDS011;32497;48.936;9.270;2024-02-14T15:49:02;0.82;;;0.10;;
46751;SDS011;32497;48.936;9.270;2024-02-14T15:54:03;0.55;;;0.13;;
46751;SDS011;32497;48.936;9.270;2024-02-14T15:59:06;0.20;;;0.20;;
46751;SDS011;32497;48.936;9.270;2024-02-14T16:04:07;0.45;;;0.30;;
46751;SDS011;32497;48.936;9.270;2024-02-14T16:09:08;0.20;;;0.10;;
46751;SDS011;32497;48.936;9.270;2024-02-14T16:14:11;0.10;;;0.10;;
46751;SDS011;32497;48.936;9.270;2024-02-14T16:19:12;0.10;;;0.10;;
46751;SDS011;32497;48.936;9.270;2024-02-14T16:24:13;0.63;;;0.40;;
46751;SDS011;32497;48.936;9.270;2024-02-14T16:29:15;0.20;;;0.20;;
46751;SDS011;32497;48.936;9.270;2024-02-14T16:34:16;0.50;;;0.30;;
46751;SDS011;32497;48.936;9.270;2024-02-14T16:39:18;0.50;;;0.20;;
46751;SDS011;32497;48.936;9.270;2024-02-14T16:44:20;2.33;;;0.20;;
46751;SDS011;32497;48.936;9.270;2024-02-14T16:49:21;0.67;;;0.23;;
46751;SDS011;32497;48.936;9.270;2024-02-14T16:54:22;0.43;;;0.20;;
46751;SDS011;32497;48.936;9.270;2024-02-14T16:59:25;0.47;;;0.17;;
46751;SDS011;32497;48.936;9.270;2024-02-14T17:04:26;1.10;;;0.27;;
46751;SDS011;32497;48.936;9.270;2024-02-14T17:09:27;0.47;;;0.20;;
46751;SDS011;32497;48.936;9.270;2024-02-14T17:14:30;1.13;;;0.33;;
46751;SDS011;32497;48.936;9.270;2024-02-14T17:19:31;1.77;;;0.30;;
46751;SDS011;32497;48.936;9.270;2024-02-14T17:24:32;3.13;;;0.87;;
46751;SDS011;32497;48.936;9.270;2024-02-14T17:29:34;1.37;;;0.70;;
46751;SDS011;32497;48.936;9.270;2024-02-14T17:34:36;1.23;;;0.47;;
46751;SDS011;32497;48.936;9.270;2024-02-14T17:39:37;0.53;;;0.20;;
46751;SDS011;32497;48.936;9.270;2024-02-14T17:44:39;0.50;;;0.20;;
46751;SDS011;32497;48.936;9.270;2024-02-14T17:49:40;0.70;;;0.37;;
46751;SDS011;32497;48.936;9.270;2024-02-14T17:54:41;0.30;;;0.20;;
46751;SDS011;32497;48.936;9.270;2024-02-14T17:59:44;1.53;;;0.33;;
46751;SDS011;32497;48.936;9.270;2024-02-14T18:04:45;0.37;;;0.13;;
46751;SDS011;32497;48.936;9.270;2024-02-14T18:09:46;0.53;;;0.27;;
46751;SDS011;32497;48.936;9.270;2024-02-14T18:14:49;0.70;;;0.20;;
46751;SDS011;32497;48.936;9.270;2024-02-14T18:19:50;3.37;;;0.53;;
46751;SDS011;32497;48.936;9.270;2024-02-14T18:24:51;0.47;;;0.27;;
46751;SDS011;32497;48.936;9.270;2024-02-14T18:29:54;1.10;;;0.60;;
46751;SDS011;32497;48.936;9.270;2024-02-14T18:34:55;1.33;;;0.70;;
46751;SDS011;32497;48.936;9.270;2024-02-14T18:39:56;1.70;;;0.80;;
46751;SDS011;32497;48.936;9.270;2024-02-14T18:44:58;1.63;;;0.90;;
46751;SDS011;32497;48.936;9.270;2024-02-14T18:50:00;0.93;;;0.50;;
46751;SDS011;32497;48.936;9.270;2024-02-14T18:55:01;2.97;;;0.80;;
46751;SDS011;32497;48.936;9.270;2024-02-14T19:00:04;2.90;;;1.47;;
46751;SDS011;32497;48.936;9.270;2024-02-14T19:05:06;2.47;;;1.10;;
46751;SDS011;32497;48.936;9.270;2024-02-14T19:10:08;2.13;;;1.00;;
46751;SDS011;32497;48.936;9.270;2024-02-14T19:15:11;1.30;;;0.77;;
46751;SDS011;32497;48.936;9.270;2024-02-14T19:20:12;3.17;;;1.20;;
46751;SDS011;32497;48.936;9.270;2024-02-14T19:25:13;2.00;;;1.10;;
46751;SDS011;32497;48.936;9.270;2024-02-14T19:30:16;2.87;;;1.30;;
46751;SDS011;32497;48.936;9.270;2024-02-14T19:35:17;3.67;;;1.47;;
46751;SDS011;32497;48.936;9.270;2024-02-14T19:40:18;3.80;;;1.50;;
46751;SDS011;32497;48.936;9.270;2024-02-14T19:45:20;3.30;;;1.67;;
46751;SDS011;32497;48.936;9.270;2024-02-14T19:50:22;15.43;;;1.80;;
46751;SDS011;32497;48.936;9.270;2024-02-14T19:55:23;3.77;;;1.70;;
46751;SDS011;32497;48.936;9.270;2024-02-14T20:00:25;1.73;;;1.13;;
46751;SDS011;32497;48.936;9.270;2024-02-14T20:05:26;2.43;;;1.67;;
46751;SDS011;32497;48.936;9.270;2024-02-14T20:10:27;6.03;;;2.30;;
46751;SDS011;32497;48.936;9.270;2024-02-14T20:15:30;3.80;;;2.30;;
46751;SDS011;32497;48.936;9.270;2024-02-14T20:20:31;3.57;;;1.80;;
46751;SDS011;32497;48.936;9.270;2024-02-14T20:25:32;7.50;;;1.90;;
46751;SDS011;32497;48.936;9.270;2024-02-14T20:30:35;5.77;;;1.77;;
46751;SDS011;32497;48.936;9.270;2024-02-14T20:35:36;4.23;;;1.87;;
46751;SDS011;32497;48.936;9.270;2024-02-14T20:40:37;2.37;;;1.07;;
46751;SDS011;32497;48.936;9.270;2024-02-14T20:45:39;2.07;;;1.07;;
46751;SDS011;32497;48.936;9.270;2024-02-14T20:50:40;2.43;;;0.90;;
46751;SDS011;32497;48.936;9.270;2024-02-14T20:55:42;1.10;;;0.77;;
46751;SDS011;32497;48.936;9.270;2024-02-14T21:00:44;1.57;;;0.63;;
46751;SDS011;32497;48.936;9.270;2024-02-14T21:05:45;1.67;;;0.93;;
46751;SDS011;32497;48.936;9.270;2024-02-14T21:10:46;1.97;;;1.07;;
46751;SDS011;32497;48.936;9.270;2024-02-14T21:15:49;3.43;;;1.23;;
46751;SDS011;32497;48.936;9.270;2024-02-14T21:20:50;1.93;;;0.93;;
46751;SDS011;32497;48.936;9.270;2024-02-14T21:25:51;2.13;;;1.03;;
46751;SDS011;32497;48.936;9.270;2024-02-14T21:30:53;3.40;;;0.90;;
46751;SDS011;32497;48.936;9.270;2024-02-14T21:35:55;2.37;;;1.03;;
46751;SDS011;32497;48.936;9.270;2024-02-14T21:40:56;0.97;;;0.60;;
46751;SDS011;32497;48.936;9.270;2024-02-14T21:45:58;1.57;;;0.73;;
46751;SDS011;32497;48.936;9.270;2024-02-14T21:51:00;1.00;;;0.77;;
46751;SDS011;32497;48.936;9.270;2024-02-14T21:56:01;1.47;;;0.60;;
46751;SDS011;32497;48.936;9.270;2024-02-14T22:01:03;2.07;;;0.70;;
46751;SDS011;32497;48.936;9.270;2024-02-14T22:06:04;0.63;;;0.50;;
46751;SDS011;32497;48.936;9.270;2024-02-14T22:11:06;1.33;;;0.60;;
46751;SDS011;32497;48.936;9.270;2024-02-14T22:16:11;3.17;;;1.00;;
46751;SDS011;32497;48.936;9.270;2024-02-14T22:21:12;1.30;;;0.50;;
46751;SDS011;32497;48.936;9.270;2024-02-14T22:26:13;1.30;;;0.60;;
46751;SDS011;32497;48.936;9.270;2024-02-14T22:31:15;0.83;;;0.40;;
46751;SDS011;32497;48.936;9.270;2024-02-14T22:36:17;1.43;;;0.40;;
46751;SDS011;32497;48.936;9.270;2024-02-14T22:41:18;0.73;;;0.30;;
46751;SDS011;32497;48.936;9.270;2024-02-14T22:46:20;1.70;;;0.47;;
46751;SDS011;32497;48.936;9.270;2024-02-14T22:51:21;0.67;;;0.30;;
46751;SDS011;32497;48.936;9.270;2024-02-14T22:56:23;0.83;;;0.57;;
46751;SDS011;32497;48.936;9.270;2024-02-14T23:01:25;0.83;;;0.43;;
46751;SDS011;32497;48.936;9.270;2024-02-14T23:06:26;0.40;;;0.30;;
46751;SDS011;32497;48.936;9.270;2024-02-14T23:11:27;0.77;;;0.30;;
46751;SDS011;32497;48.936;9.270;2024-02-14T23:16:30;0.47;;;0.20;;
46751;SDS011;32497;48.936;9.270;2024-02-14T23:21:31;0.93;;;0.40;;
46751;SDS011;32497;48.936;9.270;2024-02-14T23:26:32;0.53;;;0.43;;
46751;SDS011;32497;48.936;9.270;2024-02-14T23:31:34;1.63;;;0.40;;
46751;SDS011;32497;48.936;9.270;2024-02-14T23:36:36;0.57;;;0.37;;
46751;SDS011;32497;48.936;9.270;2024-02-14T23:41:37;2.10;;;0.40;;
46751;SDS011;32497;48.936;9.270;2024-02-14T23:46:39;1.17;;;0.33;;
46751;SDS011;32497;48.936;9.270;2024-02-14T23:51:40;0.60;;;0.47;;
46751;SDS011;32497;48.936;9.270;2024-02-14T23:56:44;1.53;;;0.70;;
